Time;durP1;ratioP1;P1;durP2;ratioP2;P2;SDS_P1;SDS_P2;PMS_P1;PMS_P2;Temp;Humidity;BMP_temperature;BMP_pressure;BME280_temperature;BME280_humidity;BME280_pressure;Samples;Min_cycle;Max_cycle;Signal;HPM_P1;HPM_P2
2021/06/22 00:00:24;;;;;;;6.72;3.22;;;13.40;84.40;;;;;;5072666;28;20460;-76
2021/06/22 00:02:50;;;;;;;7.13;3.17;;;13.30;84.40;;;;;;5072477;28;20063;-76
2021/06/22 00:05:18;;;;;;;5.38;2.95;;;13.30;84.40;;;;;;5072895;28;20074;-76
2021/06/22 00:07:48;;;;;;;5.07;3.13;;;13.30;84.50;;;;;;5072452;28;20340;-76
2021/06/22 00:10:19;;;;;;;6.68;2.97;;;13.30;84.60;;;;;;5073737;28;20032;-76
2021/06/22 00:12:45;;;;;;;7.45;3.30;;;13.30;84.60;;;;;;5071941;28;20119;-76
2021/06/22 00:15:14;;;;;;;6.32;3.33;;;13.20;84.70;;;;;;5073752;28;20501;-76
2021/06/22 00:17:41;;;;;;;7.07;3.25;;;13.20;84.80;;;;;;5072495;28;20492;-76
2021/06/22 00:20:09;;;;;;;6.60;3.50;;;13.20;84.80;;;;;;5073330;28;20464;-76
2021/06/22 00:22:35;;;;;;;6.95;3.50;;;13.20;84.90;;;;;;5073660;28;20061;-76
2021/06/22 00:25:00;;;;;;;6.75;3.33;;;13.20;85.00;;;;;;5073466;28;20107;-76
2021/06/22 00:27:26;;;;;;;7.57;3.22;;;13.20;85.00;;;;;;5072134;28;20124;-76
2021/06/22 00:29:51;;;;;;;6.07;3.42;;;13.20;84.90;;;;;;5072052;28;20457;-76
2021/06/22 00:32:18;;;;;;;8.20;3.00;;;13.20;85.00;;;;;;5072340;28;20487;-76
2021/06/22 00:34:47;;;;;;;3.97;3.08;;;13.30;85.00;;;;;;5072140;28;20094;-76
2021/06/22 00:37:15;;;;;;;5.40;3.25;;;13.20;85.00;;;;;;5073259;28;20111;-76
2021/06/22 00:39:42;;;;;;;5.57;3.20;;;13.20;85.10;;;;;;5073220;28;20032;-76
2021/06/22 00:42:08;;;;;;;5.82;3.13;;;13.10;85.20;;;;;;5072076;28;20033;-76
2021/06/22 00:44:53;;;;;;;8.32;3.70;;;13.10;85.20;;;;;;5073188;28;20075;-76
2021/06/22 00:47:19;;;;;;;6.70;3.15;;;13.10;85.20;;;;;;5073169;28;20035;-76
2021/06/22 00:49:46;;;;;;;7.45;3.45;;;13.10;85.90;;;;;;5073040;28;20024;-76
2021/06/22 00:52:12;;;;;;;8.43;3.78;;;13.10;85.30;;;;;;5071568;28;20043;-76
2021/06/22 00:54:38;;;;;;;4.85;3.13;;;13.10;85.30;;;;;;5071705;28;20024;-76
2021/06/22 00:57:14;;;;;;;5.72;3.55;;;13.00;85.30;;;;;;5073007;28;20063;-76
2021/06/22 00:59:40;;;;;;;5.75;3.65;;;13.00;85.40;;;;;;5072982;28;20084;-76
2021/06/22 01:02:06;;;;;;;5.78;3.60;;;13.00;85.40;;;;;;5071777;28;20120;-76
2021/06/22 01:04:32;;;;;;;7.82;3.17;;;13.00;85.60;;;;;;5071748;28;20032;-76
2021/06/22 01:06:59;;;;;;;5.30;3.40;;;13.00;85.60;;;;;;5072973;28;20036;-76
2021/06/22 01:09:29;;;;;;;4.13;3.13;;;12.90;85.60;;;;;;5071528;28;20032;-75
2021/06/22 01:11:56;;;;;;;6.18;3.20;;;12.90;85.60;;;;;;5071503;28;20028;-76
2021/06/22 01:14:22;;;;;;;6.07;3.45;;;12.90;85.70;;;;;;5071745;28;20028;-76
2021/06/22 01:16:48;;;;;;;5.20;3.35;;;12.90;85.80;;;;;;5071947;28;20533;-76
2021/06/22 01:19:14;;;;;;;4.55;3.17;;;12.90;85.90;;;;;;5072685;28;20033;-76
2021/06/22 01:21:40;;;;;;;6.38;3.30;;;12.90;85.90;;;;;;5072811;28;20090;-76
2021/06/22 01:24:09;;;;;;;4.63;3.50;;;12.90;85.90;;;;;;5070867;28;20020;-76
2021/06/22 01:26:37;;;;;;;6.13;3.40;;;12.90;86.00;;;;;;5072482;28;20460;-76
2021/06/22 01:29:05;;;;;;;7.50;3.30;;;12.80;86.00;;;;;;5071309;28;20042;-76
2021/06/22 01:31:31;;;;;;;7.88;3.65;;;12.80;86.00;;;;;;5072710;28;20514;-76
2021/06/22 01:33:56;;;;;;;5.90;3.30;;;12.80;86.10;;;;;;5071148;28;20028;-76
2021/06/22 01:36:22;;;;;;;5.53;3.30;;;12.80;86.10;;;;;;5071107;28;20119;-76
2021/06/22 01:38:48;;;;;;;6.20;3.50;;;12.80;86.10;;;;;;5072448;28;20029;-76
2021/06/22 01:41:15;;;;;;;4.90;3.22;;;12.80;86.20;;;;;;5071338;28;20119;-76
2021/06/22 01:43:40;;;;;;;6.97;3.45;;;12.80;86.20;;;;;;5072426;28;20024;-76
2021/06/22 01:46:06;;;;;;;6.97;3.85;;;12.80;86.20;;;;;;5072598;28;20040;-76
2021/06/22 01:48:32;;;;;;;7.22;4.00;;;12.70;86.20;;;;;;5072577;28;20506;-76
2021/06/22 01:50:58;;;;;;;6.28;3.42;;;12.70;86.30;;;;;;5072226;28;20036;-76
2021/06/22 01:53:24;;;;;;;5.35;3.20;;;12.70;86.40;;;;;;5071022;28;20061;-76
2021/06/22 01:55:51;;;;;;;5.35;3.50;;;12.70;86.40;;;;;;5070999;28;20364;-76
2021/06/22 01:58:18;;;;;;;5.90;3.47;;;12.70;86.50;;;;;;5071052;28;20029;-76
2021/06/22 02:00:48;;;;;;;5.20;3.80;;;12.70;86.50;;;;;;5071201;28;20374;-76
2021/06/22 02:03:20;;;;;;;6.45;3.35;;;12.70;86.60;;;;;;5070901;28;20083;-76
2021/06/22 02:05:47;;;;;;;6.63;3.60;;;12.60;86.50;;;;;;5072349;28;20021;-76
2021/06/22 02:08:14;;;;;;;5.60;3.63;;;12.60;86.60;;;;;;5071378;28;20024;-76
2021/06/22 02:10:39;;;;;;;6.15;3.22;;;12.60;86.60;;;;;;5070838;28;20354;-75
2021/06/22 02:13:05;;;;;;;6.57;3.63;;;12.60;86.70;;;;;;5072332;28;20059;-76
2021/06/22 02:15:31;;;;;;;6.90;3.45;;;12.60;86.70;;;;;;5072256;28;20495;-76
2021/06/22 02:17:57;;;;;;;6.38;3.50;;;12.60;86.70;;;;;;5070777;28;20028;-76
2021/06/22 02:20:23;;;;;;;4.00;2.97;;;12.60;86.80;;;;;;5070823;28;20518;-76
2021/06/22 02:22:49;;;;;;;5.43;3.05;;;12.60;86.80;;;;;;5072225;28;20056;-76
2021/06/22 02:25:15;;;;;;;4.43;3.10;;;12.60;86.80;;;;;;5070708;28;20028;-76
2021/06/22 02:27:41;;;;;;;5.43;3.13;;;12.70;86.80;;;;;;5070968;28;20051;-76
2021/06/22 02:30:16;;;;;;;5.10;3.50;;;12.70;86.80;;;;;;5071989;28;20453;-76
2021/06/22 02:32:43;;;;;;;6.30;3.88;;;12.70;86.70;;;;;;5070665;28;20040;-76
2021/06/22 02:35:10;;;;;;;5.22;3.17;;;12.70;86.70;;;;;;5072478;28;20036;-76
2021/06/22 02:37:37;;;;;;;7.72;3.55;;;12.60;86.70;;;;;;5074352;28;20029;-76
2021/06/22 02:40:05;;;;;;;7.78;4.10;;;12.60;86.70;;;;;;5075422;28;20086;-76
2021/06/22 02:42:30;;;;;;;7.97;3.72;;;12.60;86.80;;;;;;5074603;28;20059;-74
2021/06/22 02:44:56;;;;;;;8.48;3.97;;;12.50;86.70;;;;;;5075404;28;20024;-73
2021/06/22 02:47:23;;;;;;;6.53;3.75;;;12.50;87.50;;;;;;5074075;28;20087;-75
2021/06/22 02:49:49;;;;;;;6.63;3.97;;;12.50;86.90;;;;;;5074024;28;20024;-73
2021/06/22 02:52:14;;;;;;;5.07;3.55;;;12.50;87.00;;;;;;5074026;28;20131;-73
2021/06/22 02:54:40;;;;;;;4.88;3.60;;;12.40;87.00;;;;;;5074240;28;20562;-73
2021/06/22 02:57:08;;;;;;;6.43;3.70;;;12.40;87.00;;;;;;5073974;28;20467;-73
2021/06/22 02:59:35;;;;;;;5.35;3.40;;;12.40;87.10;;;;;;5073887;28;20028;-73
2021/06/22 03:02:01;;;;;;;5.47;3.67;;;12.40;87.10;;;;;;5073733;28;20462;-73
2021/06/22 03:04:26;;;;;;;6.63;3.40;;;12.40;87.10;;;;;;5073799;28;20020;-73
2021/06/22 03:06:52;;;;;;;4.78;3.55;;;12.40;87.20;;;;;;5073778;28;20024;-73
2021/06/22 03:09:18;;;;;;;6.47;3.45;;;12.30;87.20;;;;;;5073739;28;20476;-73
2021/06/22 03:11:43;;;;;;;6.00;3.38;;;12.40;87.30;;;;;;5073602;28;20035;-73
2021/06/22 03:14:09;;;;;;;6.68;3.70;;;12.30;87.20;;;;;;5073516;28;21057;-73
2021/06/22 03:16:35;;;;;;;4.00;3.40;;;12.30;87.30;;;;;;5074917;28;20399;-73
2021/06/22 03:19:01;;;;;;;8.35;4.05;;;12.30;87.30;;;;;;5073437;28;20029;-73
2021/06/22 03:21:26;;;;;;;6.30;3.17;;;12.30;87.40;;;;;;5073511;28;20047;-73
2021/06/22 03:23:52;;;;;;;5.82;3.40;;;12.30;87.40;;;;;;5073498;28;20442;-73
2021/06/22 03:26:17;;;;;;;5.78;3.42;;;12.30;87.50;;;;;;5074895;28;20051;-73
2021/06/22 03:28:43;;;;;;;5.15;2.97;;;12.30;87.50;;;;;;5073526;28;20017;-73
2021/06/22 03:31:09;;;;;;;4.88;2.75;;;12.30;87.50;;;;;;5073147;28;20032;-73
2021/06/22 03:33:34;;;;;;;5.38;3.17;;;12.30;87.50;;;;;;5074520;28;20028;-74
2021/06/22 03:36:00;;;;;;;5.53;3.40;;;12.30;87.50;;;;;;5074584;28;20032;-73
2021/06/22 03:38:26;;;;;;;5.30;3.53;;;12.30;87.50;;;;;;5074634;28;20060;-73
2021/06/22 03:40:53;;;;;;;3.83;3.25;;;12.20;87.40;;;;;;5072900;28;20028;-73
2021/06/22 03:43:21;;;;;;;6.85;3.60;;;12.30;87.50;;;;;;5073034;28;20024;-73
2021/06/22 03:45:48;;;;;;;5.18;3.65;;;12.30;87.50;;;;;;5074310;28;20482;-73
2021/06/22 03:48:13;;;;;;;6.97;3.65;;;12.30;87.50;;;;;;5072074;28;20393;-73
2021/06/22 03:50:39;;;;;;;5.85;3.80;;;12.30;87.50;;;;;;5072710;28;20032;-73
2021/06/22 03:53:05;;;;;;;6.90;3.38;;;12.30;87.50;;;;;;5074166;28;20028;-72
2021/06/22 03:55:31;;;;;;;5.00;3.22;;;12.30;87.50;;;;;;5074177;28;20033;-74
2021/06/22 03:58:02;;;;;;;7.00;3.80;;;12.30;87.50;;;;;;5072697;28;20369;-73
2021/06/22 04:00:29;;;;;;;7.35;3.50;;;12.20;87.50;;;;;;5072536;28;20130;-72
2021/06/22 04:02:58;;;;;;;6.47;3.65;;;12.20;87.60;;;;;;5072671;28;20184;-73
2021/06/22 04:05:23;;;;;;;6.95;3.50;;;12.30;87.70;;;;;;5072524;28;20036;-73
2021/06/22 04:07:50;;;;;;;4.93;3.47;;;12.30;87.70;;;;;;5072690;28;20029;-73
2021/06/22 04:10:15;;;;;;;5.90;3.70;;;12.20;87.70;;;;;;5072721;28;20587;-73
2021/06/22 04:12:41;;;;;;;6.82;3.42;;;12.30;87.70;;;;;;5072454;28;20042;-74
2021/06/22 04:15:07;;;;;;;5.53;3.70;;;12.20;87.60;;;;;;5073662;28;20527;-72
2021/06/22 04:17:33;;;;;;;6.43;3.45;;;12.30;87.70;;;;;;5072263;28;20028;-72
2021/06/22 04:19:59;;;;;;;5.88;3.63;;;12.30;87.70;;;;;;5073535;28;20029;-74
2021/06/22 04:22:24;;;;;;;6.68;3.45;;;12.30;87.70;;;;;;5072245;28;20074;-73
2021/06/22 04:24:50;;;;;;;8.27;3.53;;;12.30;87.70;;;;;;5072219;28;20511;-73
2021/06/22 04:27:16;;;;;;;5.18;3.60;;;12.30;87.70;;;;;;5072147;28;20032;-73
2021/06/22 04:29:41;;;;;;;6.72;3.42;;;12.30;87.50;;;;;;5072001;28;20028;-73
2021/06/22 04:32:07;;;;;;;5.68;3.80;;;12.30;87.50;;;;;;5072039;28;20032;-73
2021/06/22 04:34:33;;;;;;;6.82;4.15;;;12.30;87.50;;;;;;5073309;28;20033;-73
2021/06/22 04:36:58;;;;;;;5.68;3.83;;;12.40;87.40;;;;;;5071930;28;20028;-73
2021/06/22 04:39:24;;;;;;;7.30;3.85;;;12.40;87.40;;;;;;5071943;28;20025;-73
2021/06/22 04:41:50;;;;;;;7.32;3.80;;;12.40;87.30;;;;;;5071798;28;20033;-73
2021/06/22 04:44:15;;;;;;;5.97;4.18;;;12.40;87.20;;;;;;5071908;28;20056;-72
2021/06/22 04:46:41;;;;;;;7.55;4.30;;;12.40;87.10;;;;;;5071798;28;20021;-73
2021/06/22 04:49:06;;;;;;;7.78;4.30;;;12.50;87.00;;;;;;5072986;28;20468;-72
2021/06/22 04:51:32;;;;;;;9.02;4.50;;;12.50;86.90;;;;;;5071570;28;20083;-72
2021/06/22 04:53:58;;;;;;;6.03;4.30;;;12.50;86.80;;;;;;5071726;28;20032;-72
2021/06/22 04:56:25;;;;;;;7.80;4.63;;;12.50;86.80;;;;;;5073045;28;20082;-72
2021/06/22 04:58:52;;;;;;;7.38;4.82;;;12.50;86.70;;;;;;5073026;28;20036;-75
2021/06/22 05:01:18;;;;;;;6.40;4.30;;;12.50;86.70;;;;;;5071360;28;20097;-74
2021/06/22 05:03:43;;;;;;;9.45;5.20;;;12.60;86.70;;;;;;5071979;28;20028;-72
2021/06/22 05:06:11;;;;;;;7.35;4.78;;;12.60;86.60;;;;;;5071556;28;20029;-73
2021/06/22 05:08:37;;;;;;;6.60;4.45;;;12.70;86.50;;;;;;5072908;28;20097;-73
2021/06/22 05:11:03;;;;;;;7.43;4.90;;;12.70;86.30;;;;;;5072017;28;20028;-73
2021/06/22 05:13:28;;;;;;;8.75;5.28;;;12.80;86.30;;;;;;5072661;28;20052;-73
2021/06/22 05:15:54;;;;;;;8.80;5.35;;;12.90;86.20;;;;;;5072790;28;20024;-73
2021/06/22 05:18:19;;;;;;;9.38;5.38;;;12.90;86.00;;;;;;5071453;28;20032;-73
2021/06/22 05:20:45;;;;;;;8.05;5.43;;;13.00;85.80;;;;;;5071198;28;20541;-73
2021/06/22 05:23:11;;;;;;;8.35;5.10;;;13.10;85.70;;;;;;5072566;28;20032;-73
2021/06/22 05:25:36;;;;;;;7.45;4.70;;;13.20;85.60;;;;;;5072642;28;20095;-73
2021/06/22 05:28:02;;;;;;;8.05;4.82;;;13.30;85.40;;;;;;5072901;28;20058;-72
2021/06/22 05:30:28;;;;;;;9.02;4.75;;;13.40;85.20;;;;;;5072701;28;20059;-73
2021/06/22 05:32:54;;;;;;;8.45;4.45;;;13.40;84.90;;;;;;5071162;28;20032;-74
2021/06/22 05:35:20;;;;;;;9.98;5.68;;;13.50;84.80;;;;;;5072652;28;20499;-73
2021/06/22 05:37:45;;;;;;;7.85;4.80;;;13.60;84.60;;;;;;5072838;28;20049;-73
2021/06/22 05:40:12;;;;;;;7.70;5.47;;;13.60;84.40;;;;;;5071159;28;20029;-73
2021/06/22 05:42:38;;;;;;;7.03;5.07;;;13.70;84.10;;;;;;5072463;28;20132;-74
2021/06/22 05:45:05;;;;;;;8.02;5.28;;;13.80;84.10;;;;;;5071242;28;20032;-73
2021/06/22 05:47:31;;;;;;;9.55;5.78;;;13.90;83.70;;;;;;5072355;28;20044;-73
2021/06/22 05:49:56;;;;;;;8.55;5.75;;;14.00;83.50;;;;;;5071128;28;20016;-72
2021/06/22 05:52:22;;;;;;;7.78;5.32;;;14.00;83.40;;;;;;5072352;28;20056;-74
2021/06/22 05:54:48;;;;;;;9.20;5.53;;;14.20;83.10;;;;;;5072555;28;20024;-74
2021/06/22 05:57:14;;;;;;;9.35;5.28;;;14.20;82.70;;;;;;5071015;28;20029;-75
2021/06/22 05:59:39;;;;;;;7.15;5.03;;;14.30;82.30;;;;;;5071077;28;20131;-74
2021/06/22 06:02:05;;;;;;;8.77;5.45;;;14.40;81.60;;;;;;5071003;28;20024;-73
2021/06/22 06:04:31;;;;;;;7.20;5.45;;;14.40;81.40;;;;;;5071160;28;20039;-73
2021/06/22 06:06:57;;;;;;;9.18;6.45;;;14.50;81.30;;;;;;5070941;28;20025;-73
2021/06/22 06:09:23;;;;;;;8.90;5.65;;;14.60;80.60;;;;;;5070906;28;20074;-74
2021/06/22 06:11:49;;;;;;;8.48;5.55;;;14.60;80.60;;;;;;5075530;28;20119;-74
2021/06/22 06:14:15;;;;;;;9.57;6.00;;;14.70;80.70;;;;;;5076310;28;20052;-73
2021/06/22 06:16:41;;;;;;;9.55;6.20;;;14.80;80.00;;;;;;5074691;28;20443;-73
2021/06/22 06:19:06;;;;;;;7.95;6.57;;;14.80;78.90;;;;;;5074708;28;20112;-73
2021/06/22 06:21:32;;;;;;;9.48;6.30;;;14.80;79.20;;;;;;5074306;28;20040;-73
2021/06/22 06:23:58;;;;;;;8.18;5.90;;;14.80;78.60;;;;;;5074404;28;20449;-73
2021/06/22 06:26:27;;;;;;;11.88;6.25;;;14.80;78.60;;;;;;5075801;28;20020;-73
2021/06/22 06:28:56;;;;;;;8.18;5.95;;;14.80;78.80;;;;;;5074375;28;20039;-74
2021/06/22 06:31:22;;;;;;;12.48;6.10;;;14.90;79.00;;;;;;5074454;28;20024;-73
2021/06/22 06:33:48;;;;;;;10.73;5.50;;;14.90;78.80;;;;;;5074244;28;20105;-73
2021/06/22 06:36:14;;;;;;;9.75;6.30;;;15.00;78.70;;;;;;5074430;28;20525;-73
2021/06/22 06:38:40;;;;;;;7.88;5.97;;;15.00;78.30;;;;;;5074347;28;20075;-73
2021/06/22 06:41:06;;;;;;;10.73;6.43;;;15.00;78.40;;;;;;5074177;28;20072;-73
2021/06/22 06:43:31;;;;;;;11.95;6.30;;;15.10;77.10;;;;;;5074774;28;20028;-74
2021/06/22 06:45:58;;;;;;;9.95;6.40;;;15.10;77.30;;;;;;5074300;28;20163;-74
2021/06/22 06:48:26;;;;;;;9.75;6.60;;;15.20;77.10;;;;;;5074249;28;20085;-75
2021/06/22 06:50:52;;;;;;;7.97;6.15;;;15.20;76.90;;;;;;5075350;28;20424;-74
2021/06/22 06:53:18;;;;;;;11.38;6.50;;;15.30;77.00;;;;;;5073889;28;20115;-73
2021/06/22 06:55:46;;;;;;;11.70;6.53;;;15.40;76.30;;;;;;5075357;28;20153;-74
2021/06/22 06:58:12;;;;;;;12.00;6.55;;;15.50;76.10;;;;;;5073880;28;20039;-74
2021/06/22 07:00:39;;;;;;;9.93;6.30;;;15.60;75.90;;;;;;5075117;28;20036;-74
2021/06/22 07:03:06;;;;;;;8.75;6.25;;;15.70;75.50;;;;;;5073934;28;20031;-73
2021/06/22 07:05:32;;;;;;;12.52;7.55;;;15.80;74.40;;;;;;5073902;28;20051;-73
2021/06/22 07:07:59;;;;;;;11.38;6.72;;;15.80;73.70;;;;;;5075140;28;20028;-74
2021/06/22 07:13:48;;;;;;;9.98;7.10;;;16.00;73.10;;;;;;5075565;28;20035;-72
2021/06/22 07:16:15;;;;;;;10.20;6.88;;;16.10;72.20;;;;;;5073882;28;20396;-70
2021/06/22 07:18:41;;;;;;;12.52;7.25;;;16.30;72.40;;;;;;5073846;28;20066;-72
2021/06/22 07:21:06;;;;;;;8.15;6.72;;;16.30;71.80;;;;;;5075045;28;20037;-69
2021/06/22 07:23:32;;;;;;;11.63;7.15;;;16.40;71.90;;;;;;5074133;28;20032;-70
2021/06/22 07:25:58;;;;;;;10.48;7.82;;;16.60;71.60;;;;;;5075357;28;20032;-69
2021/06/22 07:28:23;;;;;;;10.15;8.50;;;16.60;70.60;;;;;;5073552;28;20021;-70
2021/06/22 07:30:49;;;;;;;9.30;6.90;;;16.50;70.30;;;;;;5073468;28;20047;-72
2021/06/22 07:33:15;;;;;;;10.27;7.07;;;16.50;70.30;;;;;;5074711;28;20104;-72
2021/06/22 07:35:43;;;;;;;11.50;6.82;;;16.50;70.90;;;;;;5073524;28;20028;-72
2021/06/22 07:38:09;;;;;;;12.77;7.43;;;16.50;70.50;;;;;;5074945;28;20024;-72
2021/06/22 07:40:35;;;;;;;11.57;7.80;;;16.40;70.30;;;;;;5073239;28;20032;-72
2021/06/22 07:43:00;;;;;;;9.77;6.95;;;16.40;70.50;;;;;;5073368;28;20086;-72
2021/06/22 07:45:26;;;;;;;10.00;7.07;;;16.40;70.50;;;;;;5074843;28;20024;-73
2021/06/22 07:47:54;;;;;;;11.95;7.90;;;16.40;70.70;;;;;;5073134;28;20024;-70
2021/06/22 07:50:20;;;;;;;10.15;7.65;;;16.40;70.20;;;;;;5073126;28;20369;-70
2021/06/22 07:52:46;;;;;;;11.18;8.30;;;16.50;69.70;;;;;;5073236;28;20031;-71
2021/06/22 07:55:14;;;;;;;10.30;7.60;;;16.40;69.30;;;;;;5074277;28;20111;-71
2021/06/22 07:57:45;;;;;;;10.75;7.78;;;16.50;69.30;;;;;;5072957;28;20480;-71
2021/06/22 08:02:58;;;;;;;8.80;6.22;;;16.50;69.20;;;;;;5074502;28;20078;-70
2021/06/22 08:05:24;;;;;;;11.38;7.35;;;16.50;69.50;;;;;;5073009;28;20028;-71
2021/06/22 08:07:49;;;;;;;10.15;8.13;;;16.60;69.20;;;;;;5072783;28;20016;-70
2021/06/22 08:10:15;;;;;;;11.80;8.35;;;16.60;68.70;;;;;;5072830;28;20055;-70
2021/06/22 08:12:41;;;;;;;11.95;6.95;;;16.70;68.80;;;;;;5074073;28;20028;-70
2021/06/22 08:15:07;;;;;;;8.48;6.55;;;16.70;69.00;;;;;;5072759;28;20495;-71
2021/06/22 08:17:33;;;;;;;10.23;7.25;;;16.80;69.00;;;;;;5072928;28;20016;-70
2021/06/22 08:19:58;;;;;;;11.15;7.72;;;16.80;68.40;;;;;;5072559;28;20020;-70
2021/06/22 08:22:24;;;;;;;8.52;6.82;;;16.80;68.70;;;;;;5073818;28;20060;-72
2021/06/22 08:24:50;;;;;;;9.55;7.05;;;16.80;68.60;;;;;;5072346;28;20527;-70
2021/06/22 08:27:15;;;;;;;12.43;7.50;;;16.80;68.40;;;;;;5072495;28;20447;-69
2021/06/22 08:29:41;;;;;;;9.65;7.32;;;16.80;68.30;;;;;;5072223;28;20027;-70
2021/06/22 08:32:07;;;;;;;8.73;6.90;;;16.70;68.30;;;;;;5072565;28;20107;-73
2021/06/22 08:34:32;;;;;;;10.13;7.78;;;16.70;68.30;;;;;;5071980;28;20032;-72
2021/06/22 08:36:59;;;;;;;9.68;7.00;;;16.70;68.10;;;;;;5072243;28;20031;-73
2021/06/22 08:39:24;;;;;;;8.40;6.95;;;16.70;68.30;;;;;;5072228;28;20017;-72
2021/06/22 08:41:52;;;;;;;11.43;7.07;;;16.70;68.10;;;;;;5073272;28;20186;-73
2021/06/22 08:44:19;;;;;;;9.85;6.90;;;16.80;68.20;;;;;;5072110;28;20369;-73
2021/06/22 08:46:46;;;;;;;9.52;6.72;;;16.80;67.60;;;;;;5071994;28;20071;-72
2021/06/22 08:49:13;;;;;;;9.82;7.55;;;16.80;67.70;;;;;;5073408;28;20050;-71
2021/06/22 08:51:40;;;;;;;12.45;7.00;;;16.90;67.30;;;;;;5072140;28;20044;-70
2021/06/22 08:54:07;;;;;;;8.88;6.57;;;16.90;67.30;;;;;;5072070;28;20464;-70
2021/06/22 08:56:33;;;;;;;10.07;7.22;;;16.90;67.10;;;;;;5071997;28;20069;-72
2021/06/22 08:58:59;;;;;;;8.35;6.75;;;16.90;66.70;;;;;;5073220;28;20025;-71
2021/06/22 09:01:25;;;;;;;9.93;6.60;;;17.00;66.50;;;;;;5072964;28;20036;-71
2021/06/22 09:03:50;;;;;;;9.50;6.82;;;17.00;66.70;;;;;;5071597;28;20032;-71
2021/06/22 09:06:16;;;;;;;11.93;7.32;;;17.00;66.20;;;;;;5073102;28;20027;-71
2021/06/22 09:08:54;;;;;;;9.05;6.57;;;17.00;65.20;;;;;;5072887;28;20021;-71
2021/06/22 09:11:20;;;;;;;9.07;6.60;;;17.00;65.70;;;;;;5072916;28;20028;-74
2021/06/22 09:13:58;;;;;;;9.45;6.50;;;17.00;65.40;;;;;;5072901;28;20499;-76
2021/06/22 09:16:24;;;;;;;7.40;6.20;;;17.10;65.60;;;;;;5074187;28;20063;-79
2021/06/22 09:18:49;;;;;;;8.32;6.80;;;17.10;65.30;;;;;;5071633;28;20113;-77
2021/06/22 09:21:24;;;;;;;8.73;6.28;;;17.20;64.90;;;;;;5072697;28;20469;-78
2021/06/22 09:23:51;;;;;;;8.27;5.78;;;17.30;65.00;;;;;;5072922;28;20382;-76
2021/06/22 09:26:20;;;;;;;9.68;6.78;;;17.50;64.70;;;;;;5073133;28;20027;-76
2021/06/22 09:28:47;;;;;;;7.28;5.45;;;17.50;64.00;;;;;;5071470;28;20451;-75
2021/06/22 09:31:15;;;;;;;6.63;5.60;;;17.70;64.20;;;;;;5071689;28;20016;-78
2021/06/22 09:33:48;;;;;;;10.45;6.40;;;17.80;64.00;;;;;;5071691;28;20020;-78
2021/06/22 09:36:15;;;;;;;9.43;6.55;;;17.90;63.10;;;;;;5072004;28;20109;-75
2021/06/22 09:39:07;;;;;;;9.60;6.70;;;18.00;62.50;;;;;;5071438;28;20484;-73
2021/06/22 09:41:38;;;;;;;8.77;6.72;;;18.00;61.70;;;;;;5071445;28;20518;-73
2021/06/22 09:44:06;;;;;;;9.57;6.45;;;18.10;61.30;;;;;;5072821;28;20024;-73
2021/06/22 09:46:39;;;;;;;11.38;6.82;;;18.10;61.10;;;;;;5074289;28;20020;-72
2021/06/22 09:49:25;;;;;;;10.35;6.28;;;18.10;60.60;;;;;;5075347;28;20361;-73
2021/06/22 09:54:27;;;;;;;9.30;6.82;;;18.20;60.00;;;;;;5076588;28;20422;-73
2021/06/22 09:57:14;;;;;;;10.25;7.32;;;18.20;60.30;;;;;;5075156;28;20028;-74
2021/06/22 09:59:57;;;;;;;8.20;6.18;;;18.20;60.30;;;;;;5075229;28;20021;-71
2021/06/22 10:02:25;;;;;;;7.45;5.70;;;18.30;60.40;;;;;;5076490;28;20025;-71
2021/06/22 10:04:53;;;;;;;7.80;6.28;;;18.40;60.70;;;;;;5076480;28;20480;-72
2021/06/22 10:07:23;;;;;;;9.32;6.28;;;18.50;60.80;;;;;;5076407;28;20106;-71
2021/06/22 10:09:54;;;;;;;8.55;6.00;;;18.60;60.40;;;;;;5076233;28;20016;-72
2021/06/22 10:12:20;;;;;;;7.25;6.47;;;18.70;60.40;;;;;;5075007;28;20027;-71
2021/06/22 10:14:48;;;;;;;7.00;6.30;;;18.80;60.60;;;;;;5076068;28;20046;-71
2021/06/22 10:17:20;;;;;;;8.50;6.53;;;18.90;60.20;;;;;;5076265;28;20051;-72
2021/06/22 10:19:48;;;;;;;8.82;6.25;;;18.90;59.20;;;;;;5074496;28;20050;-71
2021/06/22 10:22:16;;;;;;;6.95;5.70;;;18.80;59.20;;;;;;5074487;28;20025;-71
2021/06/22 10:24:45;;;;;;;9.00;5.90;;;18.80;59.20;;;;;;5076126;28;20380;-72
2021/06/22 10:27:11;;;;;;;8.85;5.50;;;18.70;59.10;;;;;;5074589;28;20074;-72
2021/06/22 10:29:38;;;;;;;8.98;5.53;;;18.70;59.20;;;;;;5074592;28;20051;-71
2021/06/22 10:35:25;;;;;;;7.72;5.60;;;18.60;59.50;;;;;;5076347;28;20054;-72
2021/06/22 10:37:58;;;;;;;8.60;5.85;;;18.70;58.90;;;;;;5075914;28;20028;-72
2021/06/22 10:40:26;;;;;;;7.88;5.47;;;18.70;58.90;;;;;;5075716;28;20033;-72
2021/06/22 10:42:52;;;;;;;8.95;5.95;;;18.70;58.70;;;;;;5074257;28;20021;-71
2021/06/22 10:45:19;;;;;;;9.75;5.20;;;18.70;57.80;;;;;;5075538;28;20090;-74
2021/06/22 10:47:46;;;;;;;6.15;5.15;;;18.60;57.90;;;;;;5075469;28;20096;-73
2021/06/22 10:50:23;;;;;;;8.15;4.78;;;18.70;58.30;;;;;;5074170;28;20024;-72
2021/06/22 10:52:55;;;;;;;5.32;4.63;;;18.80;58.60;;;;;;5037466;28;20040;-72
2021/06/22 10:55:45;;;;;;;8.88;5.47;;;19.00;58.40;;;;;;5055579;28;20025;-72
2021/06/22 10:58:13;;;;;;;6.78;5.18;;;19.00;57.90;;;;;;5055376;28;20036;-72
2021/06/22 11:00:39;;;;;;;8.40;5.72;;;19.10;57.90;;;;;;5054985;28;20051;-72
2021/06/22 11:03:08;;;;;;;8.25;5.03;;;19.00;57.10;;;;;;5055233;28;20100;-73
2021/06/22 11:05:39;;;;;;;6.78;5.75;;;19.10;57.50;;;;;;5055426;28;20048;-73
2021/06/22 11:08:14;;;;;;;7.63;5.38;;;19.10;57.30;;;;;;5037183;28;20025;-72
2021/06/22 11:10:41;;;;;;;7.45;5.15;;;19.10;57.30;;;;;;5055218;28;20495;-73
2021/06/22 11:13:27;;;;;;;6.28;5.30;;;19.10;57.40;;;;;;5055214;28;20051;-73
2021/06/22 11:15:54;;;;;;;7.35;5.22;;;19.10;57.60;;;;;;5054873;28;20116;-73
2021/06/22 11:18:20;;;;;;;8.45;6.15;;;19.20;57.90;;;;;;5054915;28;20107;-73
2021/06/22 11:21:05;;;;;;;6.93;4.93;;;19.30;57.10;;;;;;5037047;28;20029;-73
2021/06/22 11:23:56;;;;;;;6.70;5.50;;;19.40;57.10;;;;;;5036880;28;20074;-73
2021/06/22 11:26:24;;;;;;;6.47;5.25;;;19.50;56.20;;;;;;5037012;28;20033;-72
2021/06/22 11:28:57;;;;;;;8.35;4.95;;;19.50;56.00;;;;;;5055321;28;20045;-73
2021/06/22 11:31:52;;;;;;;6.55;4.80;;;19.60;56.20;;;;;;5054710;28;20107;-72
2021/06/22 11:34:34;;;;;;;7.30;4.90;;;19.60;56.10;;;;;;5036661;28;20033;-72
2021/06/22 11:37:06;;;;;;;7.43;4.45;;;19.60;56.00;;;;;;5036650;28;20036;-73
2021/06/22 11:39:36;;;;;;;7.38;4.47;;;19.50;55.10;;;;;;5036898;28;20111;-72
2021/06/22 11:42:08;;;;;;;5.78;3.80;;;19.50;55.30;;;;;;5054654;28;20025;-72
2021/06/22 11:44:37;;;;;;;4.63;4.22;;;19.50;54.80;;;;;;5036562;28;20033;-73
2021/06/22 11:47:12;;;;;;;3.88;3.53;;;19.60;54.40;;;;;;5036568;28;20392;-73
2021/06/22 11:49:42;;;;;;;5.28;3.90;;;19.70;55.10;;;;;;5036642;28;20461;-72
2021/06/22 11:52:10;;;;;;;6.00;3.90;;;19.80;54.90;;;;;;5070140;28;20048;-73
2021/06/22 11:54:48;;;;;;;6.43;4.15;;;20.00;55.10;;;;;;5074516;28;20107;-72
2021/06/22 11:57:34;;;;;;;4.70;3.83;;;20.10;55.00;;;;;;5072970;28;20482;-73
2021/06/22 12:00:08;;;;;;;4.47;3.88;;;20.20;55.00;;;;;;5073608;28;20037;-72
2021/06/22 12:02:33;;;;;;;;;;;20.30;54.70;;;;;;5073368;28;20027;-72
2021/06/22 12:05:12;;;;;;;6.20;3.95;;;20.40;53.90;;;;;;5074193;28;19991;-73
2021/06/22 12:07:48;;;;;;;9.60;4.47;;;20.40;53.40;;;;;;5073776;28;20028;-74
2021/06/22 12:10:14;;;;;;;6.07;3.80;;;20.40;52.90;;;;;;5072892;28;20540;-73
2021/06/22 12:12:48;;;;;;;4.50;3.30;;;20.40;53.00;;;;;;5073922;28;20028;-72
2021/06/22 12:15:14;;;;;;;;;;;20.40;52.70;;;;;;5074425;28;20037;-72
2021/06/22 12:17:39;;;;;;;4.53;3.50;;;20.50;52.10;;;;;;5072783;28;20339;-72
2021/06/22 12:20:36;;;;;;;4.80;3.72;;;20.50;52.30;;;;;;5073822;28;20048;-73
2021/06/22 12:23:11;;;;;;;4.95;3.75;;;20.50;52.40;;;;;;5074003;28;20028;-73
2021/06/22 12:25:49;;;;;;;4.13;2.95;;;20.60;52.60;;;;;;5073756;28;20476;-72
2021/06/22 12:28:15;;;;;;;4.45;2.95;;;20.80;52.90;;;;;;5072515;28;20437;-72
2021/06/22 12:30:44;;;;;;;4.63;3.10;;;21.00;52.50;;;;;;5073755;28;20020;-73
2021/06/22 12:33:14;;;;;;;3.35;3.00;;;21.30;53.30;;;;;;5072315;28;20083;-72
2021/06/22 12:35:42;;;;;;;4.60;2.85;;;21.40;52.50;;;;;;5072145;28;20352;-72
2021/06/22 12:38:10;;;;;;;6.85;3.30;;;21.50;52.20;;;;;;5072164;28;20039;-72
2021/06/22 12:41:00;;;;;;;6.72;3.38;;;21.40;52.00;;;;;;5073432;28;20145;-71
2021/06/22 12:43:53;;;;;;;6.10;3.35;;;21.30;51.40;;;;;;5059945;28;20491;-71
2021/06/22 12:46:21;;;;;;;5.03;3.20;;;21.20;51.30;;;;;;5067939;28;20120;-72
2021/06/22 12:48:54;;;;;;;3.97;2.72;;;21.10;51.30;;;;;;5072133;28;20059;-71
2021/06/22 12:51:20;;;;;;;3.83;2.65;;;21.20;51.60;;;;;;5073229;28;20143;-71
2021/06/22 12:53:49;;;;;;;4.72;2.88;;;21.30;51.50;;;;;;5071668;28;20028;-71
2021/06/22 12:56:18;;;;;;;4.15;2.35;;;21.50;51.40;;;;;;5072165;28;20495;-72
2021/06/22 12:59:09;;;;;;;3.17;2.28;;;21.80;51.50;;;;;;5073078;28;20095;-71
2021/06/22 13:01:40;;;;;;;5.35;2.53;;;22.10;51.40;;;;;;5073085;28;20029;-72